sensor_id;sensor_type;location;lat;lon;timestamp;pressure;altitude;pressure_sealevel;temperature;humidity
65997;BME280;52765;52.258;21.052;2023-02-13T00:00:41;102305.66;;;3.87;100.00
65997;BME280;52765;52.258;21.052;2023-02-13T00:03:07;102302.56;;;3.76;100.00
65997;BME280;52765;52.258;21.052;2023-02-13T00:05:39;102299.66;;;3.82;100.00
65997;BME280;52765;52.258;21.052;2023-02-13T00:08:04;102304.72;;;3.88;100.00
65997;BME280;52765;52.258;21.052;2023-02-13T00:10:35;102299.66;;;3.82;100.00
65997;BME280;52765;52.258;21.052;2023-02-13T00:13:02;102303.03;;;3.86;100.00
65997;BME280;52765;52.258;21.052;2023-02-13T00:15:30;102310.91;;;3.89;100.00
65997;BME280;52765;52.258;21.052;2023-02-13T00:17:56;102306.25;;;3.94;100.00
65997;BME280;52765;52.258;21.052;2023-02-13T00:20:31;102311.06;;;4.06;100.00
65997;BME280;52765;52.258;21.052;2023-02-13T00:23:00;102301.91;;;4.12;100.00
65997;BME280;52765;52.258;21.052;2023-02-13T00:25:25;102288.44;;;4.15;100.00
65997;BME280;52765;52.258;21.052;2023-02-13T00:27:51;102279.91;;;4.07;100.00
65997;BME280;52765;52.258;21.052;2023-02-13T00:30:21;102281.13;;;4.00;100.00
65997;BME280;52765;52.258;21.052;2023-02-13T00:32:50;102279.19;;;4.03;100.00
65997;BME280;52765;52.258;21.052;2023-02-13T00:35:19;102275.13;;;3.95;100.00
65997;BME280;52765;52.258;21.052;2023-02-13T00:37:44;102287.25;;;4.02;100.00
65997;BME280;52765;52.258;21.052;2023-02-13T00:40:12;102285.38;;;4.04;100.00
65997;BME280;52765;52.258;21.052;2023-02-13T00:42:39;102283.81;;;4.00;100.00
65997;BME280;52765;52.258;21.052;2023-02-13T00:45:04;102293.38;;;4.04;100.00
65997;BME280;52765;52.258;21.052;2023-02-13T00:47:30;102303.91;;;4.07;100.00
65997;BME280;52765;52.258;21.052;2023-02-13T00:49:56;102295.78;;;4.10;100.00
65997;BME280;52765;52.258;21.052;2023-02-13T00:52:21;102292.03;;;4.14;100.00
65997;BME280;52765;52.258;21.052;2023-02-13T00:54:47;102294.56;;;4.17;100.00
65997;BME280;52765;52.258;21.052;2023-02-13T00:57:13;102294.63;;;4.16;100.00
65997;BME280;52765;52.258;21.052;2023-02-13T00:59:38;102296.47;;;4.15;100.00
65997;BME280;52765;52.258;21.052;2023-02-13T01:02:04;102311.59;;;4.15;100.00
65997;BME280;52765;52.258;21.052;2023-02-13T01:04:32;102311.78;;;4.10;100.00
65997;BME280;52765;52.258;21.052;2023-02-13T01:06:58;102303.72;;;4.12;100.00
65997;BME280;52765;52.258;21.052;2023-02-13T01:09:24;102291.31;;;4.11;100.00
65997;BME280;52765;52.258;21.052;2023-02-13T01:11:49;102298.88;;;4.21;100.00
65997;BME280;52765;52.258;21.052;2023-02-13T01:14:15;102291.50;;;4.26;100.00
65997;BME280;52765;52.258;21.052;2023-02-13T01:16:41;102292.50;;;4.24;100.00
65997;BME280;52765;52.258;21.052;2023-02-13T01:19:06;102296.03;;;4.24;100.00
65997;BME280;52765;52.258;21.052;2023-02-13T01:21:32;102290.69;;;4.24;100.00
65997;BME280;52765;52.258;21.052;2023-02-13T01:24:02;102294.97;;;4.29;100.00
65997;BME280;52765;52.258;21.052;2023-02-13T01:26:28;102292.31;;;4.29;100.00
65997;BME280;52765;52.258;21.052;2023-02-13T01:28:56;102289.63;;;4.29;100.00
65997;BME280;52765;52.258;21.052;2023-02-13T01:31:26;102277.94;;;4.31;100.00
65997;BME280;52765;52.258;21.052;2023-02-13T01:33:55;102270.97;;;4.29;100.00
65997;BME280;52765;52.258;21.052;2023-02-13T01:36:20;102274.41;;;4.31;100.00
65997;BME280;52765;52.258;21.052;2023-02-13T01:38:46;102281.84;;;4.24;100.00
65997;BME280;52765;52.258;21.052;2023-02-13T01:41:11;102274.97;;;4.18;100.00
65997;BME280;52765;52.258;21.052;2023-02-13T01:46:16;102277.28;;;4.26;100.00
65997;BME280;52765;52.258;21.052;2023-02-13T01:48:43;102274.69;;;4.24;100.00
65997;BME280;52765;52.258;21.052;2023-02-13T01:51:17;102276.22;;;4.30;100.00
65997;BME280;52765;52.258;21.052;2023-02-13T01:58:51;102276.75;;;4.38;100.00
65997;BME280;52765;52.258;21.052;2023-02-13T02:01:18;102286.53;;;4.38;100.00
65997;BME280;52765;52.258;21.052;2023-02-13T02:03:59;102281.28;;;4.36;100.00
65997;BME280;52765;52.258;21.052;2023-02-13T02:06:34;102280.69;;;4.30;100.00
65997;BME280;52765;52.258;21.052;2023-02-13T02:09:12;102275.13;;;4.34;100.00
65997;BME280;52765;52.258;21.052;2023-02-13T02:12:13;102283.59;;;4.44;100.00
65997;BME280;52765;52.258;21.052;2023-02-13T02:14:44;102274.94;;;4.39;100.00
65997;BME280;52765;52.258;21.052;2023-02-13T02:17:10;102286.69;;;4.35;100.00
65997;BME280;52765;52.258;21.052;2023-02-13T02:19:58;102284.63;;;4.41;100.00
65997;BME280;52765;52.258;21.052;2023-02-13T02:25:49;102284.19;;;4.51;100.00
65997;BME280;52765;52.258;21.052;2023-02-13T02:33:45;102273.44;;;4.52;100.00
65997;BME280;52765;52.258;21.052;2023-02-13T02:36:27;102275.06;;;4.56;100.00
65997;BME280;52765;52.258;21.052;2023-02-13T02:42:05;102268.63;;;4.60;100.00
65997;BME280;52765;52.258;21.052;2023-02-13T02:44:42;102273.81;;;4.63;100.00
65997;BME280;52765;52.258;21.052;2023-02-13T02:47:19;102264.84;;;4.64;100.00
65997;BME280;52765;52.258;21.052;2023-02-13T02:58:31;102284.06;;;4.73;100.00
65997;BME280;52765;52.258;21.052;2023-02-13T03:01:18;102288.47;;;4.74;100.00
65997;BME280;52765;52.258;21.052;2023-02-13T03:04:04;102280.97;;;4.63;100.00
65997;BME280;52765;52.258;21.052;2023-02-13T03:06:55;102293.94;;;4.71;100.00
65997;BME280;52765;52.258;21.052;2023-02-13T03:09:28;102285.78;;;4.74;100.00
65997;BME280;52765;52.258;21.052;2023-02-13T03:12:23;102276.03;;;4.73;100.00
65997;BME280;52765;52.258;21.052;2023-02-13T03:15:09;102279.53;;;4.75;100.00
65997;BME280;52765;52.258;21.052;2023-02-13T03:17:35;102284.88;;;4.75;100.00
65997;BME280;52765;52.258;21.052;2023-02-13T03:20:44;102286.31;;;4.82;100.00
65997;BME280;52765;52.258;21.052;2023-02-13T03:23:46;102279.22;;;4.81;100.00
65997;BME280;52765;52.258;21.052;2023-02-13T03:32:26;102268.91;;;4.73;100.00
65997;BME280;52765;52.258;21.052;2023-02-13T03:38:24;102277.66;;;4.77;100.00
65997;BME280;52765;52.258;21.052;2023-02-13T03:40:59;102269.78;;;4.74;100.00
65997;BME280;52765;52.258;21.052;2023-02-13T03:46:25;102266.97;;;4.77;100.00
65997;BME280;52765;52.258;21.052;2023-02-13T03:48:54;102270.34;;;4.80;100.00
65997;BME280;52765;52.258;21.052;2023-02-13T03:51:44;102277.38;;;4.83;100.00
65997;BME280;52765;52.258;21.052;2023-02-13T03:54:19;102273.88;;;4.81;100.00
65997;BME280;52765;52.258;21.052;2023-02-13T03:56:49;102273.53;;;4.70;100.00
65997;BME280;52765;52.258;21.052;2023-02-13T03:59:35;102265.44;;;4.71;100.00
65997;BME280;52765;52.258;21.052;2023-02-13T04:02:10;102268.41;;;4.65;100.00
65997;BME280;52765;52.258;21.052;2023-02-13T04:05:14;102260.09;;;4.71;100.00
65997;BME280;52765;52.258;21.052;2023-02-13T04:07:41;102253.31;;;4.64;100.00
65997;BME280;52765;52.258;21.052;2023-02-13T04:10:12;102272.66;;;4.69;100.00
65997;BME280;52765;52.258;21.052;2023-02-13T04:18:22;102267.31;;;4.50;100.00
65997;BME280;52765;52.258;21.052;2023-02-13T04:20:49;102265.56;;;4.49;100.00
65997;BME280;52765;52.258;21.052;2023-02-13T04:23:15;102263.56;;;4.54;100.00
65997;BME280;52765;52.258;21.052;2023-02-13T04:25:44;102265.22;;;4.57;100.00
65997;BME280;52765;52.258;21.052;2023-02-13T04:28:11;102274.88;;;4.59;100.00
65997;BME280;52765;52.258;21.052;2023-02-13T04:30:40;102269.28;;;4.66;100.00
65997;BME280;52765;52.258;21.052;2023-02-13T04:33:05;102275.41;;;4.68;100.00
65997;BME280;52765;52.258;21.052;2023-02-13T04:35:31;102261.41;;;4.62;100.00
65997;BME280;52765;52.258;21.052;2023-02-13T04:37:56;102271.88;;;4.67;100.00
65997;BME280;52765;52.258;21.052;2023-02-13T04:40:22;102267.44;;;4.66;100.00
65997;BME280;52765;52.258;21.052;2023-02-13T04:42:48;102277.94;;;4.71;100.00
65997;BME280;52765;52.258;21.052;2023-02-13T04:45:13;102271.81;;;4.69;100.00
65997;BME280;52765;52.258;21.052;2023-02-13T04:47:39;102278.88;;;4.70;100.00
65997;BME280;52765;52.258;21.052;2023-02-13T04:50:05;102273.38;;;4.73;100.00
65997;BME280;52765;52.258;21.052;2023-02-13T04:52:31;102274.97;;;4.77;100.00
65997;BME280;52765;52.258;21.052;2023-02-13T04:54:56;102279.22;;;4.81;100.00
65997;BME280;52765;52.258;21.052;2023-02-13T04:57:22;102280.19;;;4.80;100.00
65997;BME280;52765;52.258;21.052;2023-02-13T04:59:47;102270.50;;;4.77;100.00
65997;BME280;52765;52.258;21.052;2023-02-13T05:02:13;102268.47;;;4.82;100.00
65997;BME280;52765;52.258;21.052;2023-02-13T05:04:38;102262.28;;;4.82;100.00
65997;BME280;52765;52.258;21.052;2023-02-13T05:07:04;102255.84;;;4.86;100.00
65997;BME280;52765;52.258;21.052;2023-02-13T05:09:29;102262.28;;;4.82;100.00
65997;BME280;52765;52.258;21.052;2023-02-13T05:11:55;102261.03;;;4.89;100.00
65997;BME280;52765;52.258;21.052;2023-02-13T05:14:21;102259.25;;;4.90;100.00
65997;BME280;52765;52.258;21.052;2023-02-13T05:16:46;102269.84;;;4.91;100.00
65997;BME280;52765;52.258;21.052;2023-02-13T05:19:15;102264.88;;;4.84;100.00
65997;BME280;52765;52.258;21.052;2023-02-13T05:21:40;102272.59;;;4.90;100.00
65997;BME280;52765;52.258;21.052;2023-02-13T05:24:26;102271.63;;;4.91;100.00
65997;BME280;52765;52.258;21.052;2023-02-13T05:26:52;102284.06;;;4.92;100.00
65997;BME280;52765;52.258;21.052;2023-02-13T05:29:20;102272.34;;;4.94;100.00
65997;BME280;52765;52.258;21.052;2023-02-13T05:31:53;102268.69;;;4.97;100.00
65997;BME280;52765;52.258;21.052;2023-02-13T05:34:20;102271.16;;;5.02;100.00
65997;BME280;52765;52.258;21.052;2023-02-13T05:36:46;102263.00;;;5.05;100.00
65997;BME280;52765;52.258;21.052;2023-02-13T05:39:13;102272.72;;;5.06;100.00
65997;BME280;52765;52.258;21.052;2023-02-13T05:41:40;102262.78;;;4.90;100.00
65997;BME280;52765;52.258;21.052;2023-02-13T05:44:05;102271.56;;;4.92;100.00
65997;BME280;52765;52.258;21.052;2023-02-13T05:46:31;102269.84;;;4.91;100.00
65997;BME280;52765;52.258;21.052;2023-02-13T05:48:57;102277.94;;;4.90;100.00
65997;BME280;52765;52.258;21.052;2023-02-13T05:51:23;102283.13;;;4.93;100.00
65997;BME280;52765;52.258;21.052;2023-02-13T05:53:49;102280.53;;;4.72;100.00
65997;BME280;52765;52.258;21.052;2023-02-13T05:56:15;102284.94;;;4.73;100.00
65997;BME280;52765;52.258;21.052;2023-02-13T05:58:40;102300.81;;;4.76;100.00
65997;BME280;52765;52.258;21.052;2023-02-13T06:01:06;102289.25;;;4.76;100.00
65997;BME280;52765;52.258;21.052;2023-02-13T06:03:32;102287.31;;;4.79;100.00
65997;BME280;52765;52.258;21.052;2023-02-13T06:05:58;102291.94;;;4.76;100.00
65997;BME280;52765;52.258;21.052;2023-02-13T06:08:24;102290.50;;;4.69;100.00
65997;BME280;52765;52.258;21.052;2023-02-13T06:10:50;102297.41;;;4.73;100.00
65997;BME280;52765;52.258;21.052;2023-02-13T06:13:16;102295.38;;;4.78;100.00
65997;BME280;52765;52.258;21.052;2023-02-13T06:15:42;102296.91;;;4.84;100.00
65997;BME280;52765;52.258;21.052;2023-02-13T06:18:08;102297.78;;;4.84;100.00
65997;BME280;52765;52.258;21.052;2023-02-13T06:20:34;102278.78;;;4.90;100.00
65997;BME280;52765;52.258;21.052;2023-02-13T06:23:00;102286.09;;;4.87;100.00
65997;BME280;52765;52.258;21.052;2023-02-13T06:25:26;102287.81;;;4.88;100.00
65997;BME280;52765;52.258;21.052;2023-02-13T06:27:51;102282.03;;;4.97;100.00
65997;BME280;52765;52.258;21.052;2023-02-13T06:30:17;102292.38;;;4.86;100.00
65997;BME280;52765;52.258;21.052;2023-02-13T06:32:45;102290.41;;;4.89;100.00
65997;BME280;52765;52.258;21.052;2023-02-13T06:35:12;102295.47;;;4.76;100.00
65997;BME280;52765;52.258;21.052;2023-02-13T06:37:37;102295.63;;;4.73;100.00
65997;BME280;52765;52.258;21.052;2023-02-13T06:40:05;102289.19;;;4.77;100.00
65997;BME280;52765;52.258;21.052;2023-02-13T06:42:31;102292.28;;;4.87;100.00
65997;BME280;52765;52.258;21.052;2023-02-13T06:44:56;102293.59;;;4.97;100.00
65997;BME280;52765;52.258;21.052;2023-02-13T06:47:22;102297.56;;;4.89;100.00
65997;BME280;52765;52.258;21.052;2023-02-13T06:49:47;102310.91;;;4.70;100.00
65997;BME280;52765;52.258;21.052;2023-02-13T06:52:13;102296.63;;;4.71;100.00
65997;BME280;52765;52.258;21.052;2023-02-13T06:54:41;102302.75;;;4.73;100.00
65997;BME280;52765;52.258;21.052;2023-02-13T06:57:07;102301.94;;;4.71;100.00
65997;BME280;52765;52.258;21.052;2023-02-13T06:59:33;102299.72;;;4.80;100.00
65997;BME280;52765;52.258;21.052;2023-02-13T07:01:59;102292.22;;;4.89;100.00
65997;BME280;52765;52.258;21.052;2023-02-13T07:04:26;102283.22;;;4.91;100.00
65997;BME280;52765;52.258;21.052;2023-02-13T07:06:55;102287.88;;;5.05;100.00
65997;BME280;52765;52.258;21.052;2023-02-13T07:09:22;102285.16;;;5.07;100.00
65997;BME280;52765;52.258;21.052;2023-02-13T07:11:47;102283.47;;;5.04;100.00
65997;BME280;52765;52.258;21.052;2023-02-13T07:14:12;102285.28;;;5.04;100.00
65997;BME280;52765;52.258;21.052;2023-02-13T07:16:38;102295.03;;;5.05;100.00
65997;BME280;52765;52.258;21.052;2023-02-13T07:19:03;102291.06;;;5.13;100.00
65997;BME280;52765;52.258;21.052;2023-02-13T07:21:29;102290.91;;;5.16;100.00
65997;BME280;52765;52.258;21.052;2023-02-13T07:23:54;102278.03;;;5.25;100.00
65997;BME280;52765;52.258;21.052;2023-02-13T07:26:20;102289.59;;;5.25;100.00
65997;BME280;52765;52.258;21.052;2023-02-13T07:28:46;102292.84;;;5.32;100.00
65997;BME280;52765;52.258;21.052;2023-02-13T07:31:11;102293.09;;;5.45;100.00
65997;BME280;52765;52.258;21.052;2023-02-13T07:33:37;102291.28;;;5.45;100.00
65997;BME280;52765;52.258;21.052;2023-02-13T07:36:03;102300.16;;;5.46;100.00
65997;BME280;52765;52.258;21.052;2023-02-13T07:38:32;102307.19;;;5.48;100.00
65997;BME280;52765;52.258;21.052;2023-02-13T07:41:02;102295.59;;;5.48;100.00
65997;BME280;52765;52.258;21.052;2023-02-13T07:43:28;102303.38;;;5.35;100.00
65997;BME280;52765;52.258;21.052;2023-02-13T07:45:57;102309.75;;;5.13;100.00
65997;BME280;52765;52.258;21.052;2023-02-13T07:48:23;102322.03;;;4.98;100.00
65997;BME280;52765;52.258;21.052;2023-02-13T07:50:52;102321.53;;;4.90;100.00
65997;BME280;52765;52.258;21.052;2023-02-13T07:53:17;102299.44;;;4.87;100.00
65997;BME280;52765;52.258;21.052;2023-02-13T07:55:43;102286.16;;;4.85;100.00
65997;BME280;52765;52.258;21.052;2023-02-13T07:58:08;102307.44;;;5.06;100.00
65997;BME280;52765;52.258;21.052;2023-02-13T08:00:34;102300.66;;;4.98;100.00
65997;BME280;52765;52.258;21.052;2023-02-13T08:03:00;102298.94;;;4.78;100.00
65997;BME280;52765;52.258;21.052;2023-02-13T08:05:32;102302.75;;;4.92;100.00
65997;BME280;52765;52.258;21.052;2023-02-13T08:07:58;102292.56;;;4.81;100.00
65997;BME280;52765;52.258;21.052;2023-02-13T08:10:24;102302.19;;;4.85;100.00
65997;BME280;52765;52.258;21.052;2023-02-13T08:13:08;102293.72;;;4.94;100.00
65997;BME280;52765;52.258;21.052;2023-02-13T08:15:36;102294.25;;;4.84;100.00
65997;BME280;52765;52.258;21.052;2023-02-13T08:18:01;102287.47;;;4.76;100.00
65997;BME280;52765;52.258;21.052;2023-02-13T08:20:28;102294.91;;;4.70;100.00
65997;BME280;52765;52.258;21.052;2023-02-13T08:22:53;102287.31;;;4.79;100.00
65997;BME280;52765;52.258;21.052;2023-02-13T08:25:26;102281.31;;;4.93;100.00
65997;BME280;52765;52.258;21.052;2023-02-13T08:27:51;102278.72;;;4.92;100.00
65997;BME280;52765;52.258;21.052;2023-02-13T08:30:17;102293.31;;;4.85;100.00
65997;BME280;52765;52.258;21.052;2023-02-13T08:32:42;102297.25;;;4.76;100.00
65997;BME280;52765;52.258;21.052;2023-02-13T08:35:08;102287.38;;;4.78;100.00
65997;BME280;52765;52.258;21.052;2023-02-13T08:37:33;102283.91;;;4.76;100.00
65997;BME280;52765;52.258;21.052;2023-02-13T08:39:59;102287.22;;;4.81;100.00
65997;BME280;52765;52.258;21.052;2023-02-13T08:42:24;102283.22;;;4.91;100.00
65997;BME280;52765;52.258;21.052;2023-02-13T08:44:50;102279.00;;;4.86;100.00
65997;BME280;52765;52.258;21.052;2023-02-13T08:47:15;102273.97;;;4.98;100.00
65997;BME280;52765;52.258;21.052;2023-02-13T08:49:43;102278.66;;;4.93;100.00
65997;BME280;52765;52.258;21.052;2023-02-13T08:52:09;102266.03;;;4.97;100.00
65997;BME280;52765;52.258;21.052;2023-02-13T08:54:34;102271.22;;;5.00;100.00
65997;BME280;52765;52.258;21.052;2023-02-13T08:57:00;102272.44;;;5.29;100.00
65997;BME280;52765;52.258;21.052;2023-02-13T08:59:26;102263.88;;;5.23;100.00
65997;BME280;52765;52.258;21.052;2023-02-13T09:01:54;102280.44;;;5.12;100.00
65997;BME280;52765;52.258;21.052;2023-02-13T09:04:19;102288.38;;;4.94;100.00
65997;BME280;52765;52.258;21.052;2023-02-13T09:06:45;102274.25;;;4.92;100.00
65997;BME280;52765;52.258;21.052;2023-02-13T09:09:10;102274.88;;;4.97;100.00
65997;BME280;52765;52.258;21.052;2023-02-13T09:11:36;102277.88;;;4.91;100.00
65997;BME280;52765;52.258;21.052;2023-02-13T09:14:02;102277.56;;;4.97;100.00
65997;BME280;52765;52.258;21.052;2023-02-13T09:16:27;102283.41;;;5.06;100.00
65997;BME280;52765;52.258;21.052;2023-02-13T09:18:53;102282.63;;;5.04;100.00
65997;BME280;52765;52.258;21.052;2023-02-13T09:21:20;102275.53;;;5.03;100.00
65997;BME280;52765;52.258;21.052;2023-02-13T09:23:48;102277.69;;;5.13;100.00
65997;BME280;52765;52.258;21.052;2023-02-13T09:26:15;102276.34;;;5.05;100.00
65997;BME280;52765;52.258;21.052;2023-02-13T09:28:41;102272.94;;;5.01;100.00
65997;BME280;52765;52.258;21.052;2023-02-13T09:31:24;102281.56;;;5.25;100.00
65997;BME280;52765;52.258;21.052;2023-02-13T09:33:50;102283.31;;;5.26;100.00
65997;BME280;52765;52.258;21.052;2023-02-13T09:36:21;102284.25;;;5.43;100.00
65997;BME280;52765;52.258;21.052;2023-02-13T09:38:54;102287.69;;;5.27;100.00
65997;BME280;52765;52.258;21.052;2023-02-13T09:41:41;102281.88;;;5.19;100.00
65997;BME280;52765;52.258;21.052;2023-02-13T09:44:27;102277.78;;;5.12;100.00
65997;BME280;52765;52.258;21.052;2023-02-13T09:47:34;102279.41;;;5.14;100.00
65997;BME280;52765;52.258;21.052;2023-02-13T09:52:34;102272.28;;;5.51;100.00
65997;BME280;52765;52.258;21.052;2023-02-13T09:55:01;102274.63;;;5.57;100.00
65997;BME280;52765;52.258;21.052;2023-02-13T09:57:33;102275.03;;;5.50;100.00
65997;BME280;52765;52.258;21.052;2023-02-13T10:00:23;102262.72;;;5.46;100.00
65997;BME280;52765;52.258;21.052;2023-02-13T10:16:53;102292.31;;;5.60;100.00
65997;BME280;52765;52.258;21.052;2023-02-13T10:22:37;102301.97;;;5.45;100.00
65997;BME280;52765;52.258;21.052;2023-02-13T10:25:26;102289.72;;;5.59;100.00
65997;BME280;52765;52.258;21.052;2023-02-13T10:28:06;102277.69;;;5.67;100.00
65997;BME280;52765;52.258;21.052;2023-02-13T10:30:51;102284.53;;;5.90;100.00
65997;BME280;52765;52.258;21.052;2023-02-13T10:33:54;102289.28;;;5.85;100.00
65997;BME280;52765;52.258;21.052;2023-02-13T10:36:24;102290.19;;;5.84;100.00
65997;BME280;52765;52.258;21.052;2023-02-13T10:41:54;102275.13;;;6.01;100.00
65997;BME280;52765;52.258;21.052;2023-02-13T10:47:39;102258.50;;;5.94;100.00
65997;BME280;52765;52.258;21.052;2023-02-13T10:50:05;102268.25;;;5.95;100.00
65997;BME280;52765;52.258;21.052;2023-02-13T10:52:54;102247.13;;;5.73;100.00
65997;BME280;52765;52.258;21.052;2023-02-13T11:01:38;102256.78;;;5.93;100.00
65997;BME280;52765;52.258;21.052;2023-02-13T11:04:11;102266.63;;;5.75;100.00
65997;BME280;52765;52.258;21.052;2023-02-13T11:06:42;102255.28;;;5.70;100.00
65997;BME280;52765;52.258;21.052;2023-02-13T11:09:09;102251.72;;;5.69;100.00
65997;BME280;52765;52.258;21.052;2023-02-13T11:11:40;102259.69;;;5.88;100.00
65997;BME280;52765;52.258;21.052;2023-02-13T11:14:13;102255.03;;;6.09;100.00
65997;BME280;52765;52.258;21.052;2023-02-13T11:16:42;102250.50;;;6.11;100.00
65997;BME280;52765;52.258;21.052;2023-02-13T11:19:36;102247.00;;;5.92;100.00
65997;BME280;52765;52.258;21.052;2023-02-13T11:22:15;102249.13;;;5.68;100.00
65997;BME280;52765;52.258;21.052;2023-02-13T11:24:55;102240.72;;;5.75;100.00
65997;BME280;52765;52.258;21.052;2023-02-13T11:27:32;102236.03;;;5.98;100.00
65997;BME280;52765;52.258;21.052;2023-02-13T11:30:45;102238.13;;;5.91;100.00
65997;BME280;52765;52.258;21.052;2023-02-13T11:32:58;102236.41;;;6.08;100.00
65997;BME280;52765;52.258;21.052;2023-02-13T11:35:31;102234.72;;;6.23;100.00
65997;BME280;52765;52.258;21.052;2023-02-13T11:38:22;102239.97;;;6.24;100.00
65997;BME280;52765;52.258;21.052;2023-02-13T11:40:52;102222.53;;;6.17;100.00
65997;BME280;52765;52.258;21.052;2023-02-13T11:43:52;102224.44;;;6.15;100.00
65997;BME280;52765;52.258;21.052;2023-02-13T11:46:21;102219.41;;;6.09;100.00
65997;BME280;52765;52.258;21.052;2023-02-13T11:56:50;102214.38;;;6.03;100.00
65997;BME280;52765;52.258;21.052;2023-02-13T11:59:16;102219.31;;;6.10;100.00
65997;BME280;52765;52.258;21.052;2023-02-13T12:01:42;102203.19;;;6.12;100.00
65997;BME280;52765;52.258;21.052;2023-02-13T12:04:14;102197.13;;;6.08;100.00
65997;BME280;52765;52.258;21.052;2023-02-13T12:06:41;102195.03;;;5.98;100.00
65997;BME280;52765;52.258;21.052;2023-02-13T12:09:21;102210.44;;;6.10;100.00
65997;BME280;52765;52.258;21.052;2023-02-13T12:11:50;102188.25;;;6.24;100.00
65997;BME280;52765;52.258;21.052;2023-02-13T12:14:23;102180.34;;;6.38;100.00
65997;BME280;52765;52.258;21.052;2023-02-13T12:16:59;102168.59;;;6.41;100.00
65997;BME280;52765;52.258;21.052;2023-02-13T12:19:38;102175.66;;;6.26;100.00
65997;BME280;52765;52.258;21.052;2023-02-13T12:22:25;102182.66;;;6.44;100.00
65997;BME280;52765;52.258;21.052;2023-02-13T12:25:16;102190.88;;;6.25;100.00
65997;BME280;52765;52.258;21.052;2023-02-13T12:27:58;102186.38;;;6.26;100.00
65997;BME280;52765;52.258;21.052;2023-02-13T12:36:00;102185.06;;;6.17;100.00
65997;BME280;52765;52.258;21.052;2023-02-13T12:44:25;102166.84;;;5.90;100.00
65997;BME280;52765;52.258;21.052;2023-02-13T12:47:15;102173.47;;;6.01;100.00
65997;BME280;52765;52.258;21.052;2023-02-13T12:50:06;102183.91;;;6.05;100.00
65997;BME280;52765;52.258;21.052;2023-02-13T13:09:41;102129.81;;;6.64;100.00
65997;BME280;52765;52.258;21.052;2023-02-13T13:14:27;102119.09;;;7.10;99.32
65997;BME280;52765;52.258;21.052;2023-02-13T13:28:19;102117.56;;;7.36;94.87
65997;BME280;52765;52.258;21.052;2023-02-13T13:30:46;102108.03;;;7.16;96.38
65997;BME280;52765;52.258;21.052;2023-02-13T13:33:16;102116.28;;;6.97;97.93
65997;BME280;52765;52.258;21.052;2023-02-13T13:38:38;102110.88;;;7.13;97.77
65997;BME280;52765;52.258;21.052;2023-02-13T13:41:17;102120.28;;;7.20;96.67
65997;BME280;52765;52.258;21.052;2023-02-13T13:52:26;102115.75;;;7.07;96.71
65997;BME280;52765;52.258;21.052;2023-02-13T13:54:52;102108.28;;;7.12;96.80
65997;BME280;52765;52.258;21.052;2023-02-13T13:57:26;102105.78;;;7.09;95.82
65997;BME280;52765;52.258;21.052;2023-02-13T14:00:23;102085.19;;;6.95;96.23
65997;BME280;52765;52.258;21.052;2023-02-13T14:05:58;102092.75;;;6.72;97.47
65997;BME280;52765;52.258;21.052;2023-02-13T14:11:39;102108.56;;;6.61;98.45
65997;BME280;52765;52.258;21.052;2023-02-13T14:16:54;102103.66;;;6.53;98.38
65997;BME280;52765;52.258;21.052;2023-02-13T14:19:40;102102.53;;;6.57;98.16
65997;BME280;52765;52.258;21.052;2023-02-13T14:22:33;102090.28;;;6.37;99.38
65997;BME280;52765;52.258;21.052;2023-02-13T14:25:19;102092.09;;;6.37;99.30
65997;BME280;52765;52.258;21.052;2023-02-13T14:27:56;102087.16;;;6.29;100.00
65997;BME280;52765;52.258;21.052;2023-02-13T14:30:38;102090.00;;;6.26;100.00
65997;BME280;52765;52.258;21.052;2023-02-13T14:33:23;102089.94;;;6.27;100.00
65997;BME280;52765;52.258;21.052;2023-02-13T14:35:59;102096.34;;;6.25;100.00
65997;BME280;52765;52.258;21.052;2023-02-13T14:38:26;102104.53;;;6.22;100.00
65997;BME280;52765;52.258;21.052;2023-02-13T14:40:52;102107.22;;;6.22;100.00
65997;BME280;52765;52.258;21.052;2023-02-13T14:43:20;102098.03;;;6.26;100.00
65997;BME280;52765;52.258;21.052;2023-02-13T14:45:52;102094.19;;;6.32;100.00
65997;BME280;52765;52.258;21.052;2023-02-13T14:48:21;102077.94;;;6.19;100.00
65997;BME280;52765;52.258;21.052;2023-02-13T14:50:52;102092.69;;;6.26;100.00
65997;BME280;52765;52.258;21.052;2023-02-13T14:53:48;102100.22;;;6.35;100.00
65997;BME280;52765;52.258;21.052;2023-02-13T14:56:18;102093.13;;;6.34;99.62
65997;BME280;52765;52.258;21.052;2023-02-13T14:59:10;102087.84;;;6.33;100.00
65997;BME280;52765;52.258;21.052;2023-02-13T15:01:42;102077.25;;;6.15;100.00
65997;BME280;52765;52.258;21.052;2023-02-13T15:04:21;102085.13;;;6.18;100.00
65997;BME280;52765;52.258;21.052;2023-02-13T15:06:52;102077.34;;;6.14;100.00
65997;BME280;52765;52.258;21.052;2023-02-13T15:09:35;102081.47;;;6.03;100.00
65997;BME280;52765;52.258;21.052;2023-02-13T15:12:04;102073.38;;;6.05;100.00
65997;BME280;52765;52.258;21.052;2023-02-13T15:14:47;102076.91;;;6.05;100.00
65997;BME280;52765;52.258;21.052;2023-02-13T15:17:16;102074.13;;;6.07;99.90
65997;BME280;52765;52.258;21.052;2023-02-13T15:19:46;102069.94;;;5.85;100.00
65997;BME280;52765;52.258;21.052;2023-02-13T15:22:20;102055.44;;;5.89;100.00
65997;BME280;52765;52.258;21.052;2023-02-13T15:24:51;102058.50;;;5.99;100.00
65997;BME280;52765;52.258;21.052;2023-02-13T15:27:19;102058.00;;;6.08;100.00
65997;BME280;52765;52.258;21.052;2023-02-13T15:32:34;102051.28;;;6.01;100.00